createdAt,value
2022-10-16T00:00:46.084Z,99373.72
2022-10-16T00:03:13.938Z,99370.22
2022-10-16T00:05:42.051Z,99374.59
2022-10-16T00:08:09.997Z,99335.19
2022-10-16T00:10:37.698Z,99389.34
2022-10-16T00:13:05.527Z,99391.25
2022-10-16T00:15:37.048Z,99366.84
2022-10-16T00:18:06.154Z,99347.19
2022-10-16T00:20:35.846Z,99387.88
2022-10-16T00:23:04.164Z,99394.75
2022-10-16T00:25:33.546Z,99400.91
2022-10-16T00:28:01.395Z,99399.19
2022-10-16T00:30:29.906Z,99402.63
2022-10-16T00:32:57.890Z,99411.44
2022-10-16T00:35:27.061Z,99410.41
2022-10-16T00:37:54.640Z,99402.56
2022-10-16T00:40:22.389Z,99410.50
2022-10-16T00:42:50.028Z,99412.22
2022-10-16T00:45:18.143Z,99396.69
2022-10-16T00:47:48.184Z,99405.47
2022-10-16T00:50:18.613Z,99398.50
2022-10-16T00:52:48.675Z,99392.94
2022-10-16T00:55:16.378Z,99402.41
2022-10-16T00:57:44.050Z,99402.66
2022-10-16T01:00:14.024Z,99404.50
2022-10-16T01:02:41.587Z,99396.72
2022-10-16T01:05:10.303Z,99392.59
2022-10-16T01:07:42.171Z,99382.50
2022-10-16T01:10:16.341Z,99400.78
2022-10-16T01:12:47.132Z,99406.09
2022-10-16T01:15:19.828Z,99401.75
2022-10-16T01:17:49.205Z,99406.16
2022-10-16T01:20:23.048Z,99370.06
2022-10-16T01:23:00.209Z,99408.06
2022-10-16T01:25:33.855Z,99405.00
2022-10-16T01:28:02.835Z,99408.25
2022-10-16T01:30:32.511Z,99368.78
2022-10-16T01:33:02.723Z,99409.41
2022-10-16T01:35:31.854Z,99415.44
2022-10-16T01:38:03.149Z,99407.66
2022-10-16T01:40:30.735Z,99404.03
2022-10-16T01:43:00.799Z,99399.72
2022-10-16T01:45:32.402Z,99405.13
2022-10-16T01:47:59.995Z,99412.97
2022-10-16T01:50:27.748Z,99397.50
2022-10-16T01:52:55.322Z,99404.25
2022-10-16T01:55:25.197Z,99379.44
2022-10-16T01:57:52.873Z,99407.22
2022-10-16T02:00:21.220Z,99412.41
2022-10-16T02:02:51.534Z,99419.50
2022-10-16T02:05:22.178Z,99426.66
2022-10-16T02:07:49.775Z,99422.28
2022-10-16T02:10:17.741Z,99432.78
2022-10-16T02:12:47.774Z,99424.00
2022-10-16T02:15:15.545Z,99413.47
2022-10-16T02:17:43.198Z,99414.34
2022-10-16T02:20:12.498Z,99416.16
2022-10-16T02:22:41.843Z,99411.06
2022-10-16T02:25:11.904Z,99424.06
2022-10-16T02:27:42.494Z,99367.22
2022-10-16T02:30:14.163Z,99429.47
2022-10-16T02:32:43.013Z,99437.41
2022-10-16T02:35:12.157Z,99429.50
2022-10-16T02:37:39.935Z,99430.38
2022-10-16T02:40:09.232Z,99424.28
2022-10-16T02:42:37.121Z,99388.91
2022-10-16T02:45:05.366Z,99428.41
2022-10-16T02:47:32.988Z,99437.22
2022-10-16T02:50:00.738Z,99425.63
2022-10-16T02:52:29.938Z,99447.78
2022-10-16T02:54:57.794Z,99429.34
2022-10-16T02:57:25.631Z,99424.09
2022-10-16T02:59:53.581Z,99429.38
2022-10-16T03:02:21.201Z,99423.31
2022-10-16T03:04:48.998Z,99418.06
2022-10-16T03:07:16.572Z,99432.22
2022-10-16T03:09:45.649Z,99433.03
2022-10-16T03:12:13.909Z,99408.97
2022-10-16T03:14:41.812Z,99431.28
2022-10-16T03:17:09.413Z,99440.22
2022-10-16T03:19:37.560Z,99429.81
2022-10-16T03:22:05.140Z,99430.56
2022-10-16T03:24:33.060Z,99416.44
2022-10-16T03:27:02.159Z,99418.31
2022-10-16T03:29:30.352Z,99416.69
2022-10-16T03:31:58.259Z,99410.75
2022-10-16T03:34:26.484Z,99407.25
2022-10-16T03:36:54.090Z,99412.53
2022-10-16T03:39:21.777Z,99431.88
2022-10-16T03:41:49.333Z,99437.22
2022-10-16T03:44:18.615Z,99437.78
2022-10-16T03:46:46.242Z,99439.50
2022-10-16T03:49:13.926Z,99428.03
2022-10-16T03:51:41.577Z,99429.81
2022-10-16T03:54:09.199Z,99430.00
2022-10-16T03:56:36.937Z,99428.09
2022-10-16T03:59:08.751Z,99399.66
2022-10-16T04:01:37.794Z,99426.47
2022-10-16T04:04:05.549Z,99443.25
2022-10-16T04:06:33.257Z,99435.47
2022-10-16T04:09:00.813Z,99444.06
2022-10-16T04:11:28.574Z,99445.91
2022-10-16T04:13:56.272Z,99445.31
2022-10-16T04:16:23.934Z,99453.03
2022-10-16T04:18:52.865Z,99457.44
2022-10-16T04:21:20.656Z,99452.31
2022-10-16T04:23:48.290Z,99454.94
2022-10-16T04:26:15.916Z,99476.97
2022-10-16T04:28:43.666Z,99463.19
2022-10-16T04:33:45.790Z,99483.41
2022-10-16T04:36:14.768Z,99484.38
2022-10-16T04:38:42.401Z,99492.41
2022-10-16T04:41:09.989Z,99464.94
2022-10-16T04:43:37.659Z,99482.94
2022-10-16T04:46:05.678Z,99497.16
2022-10-16T04:48:33.424Z,99482.31
2022-10-16T04:51:01.144Z,99485.00
2022-10-16T04:53:30.369Z,99491.41
2022-10-16T04:55:58.225Z,99484.34
2022-10-16T04:58:25.786Z,99481.06
2022-10-16T05:00:53.442Z,99484.59
2022-10-16T05:03:21.143Z,99486.38
2022-10-16T05:05:49.008Z,99434.06
2022-10-16T05:08:16.938Z,99509.41
2022-10-16T05:10:46.061Z,99500.00
2022-10-16T05:13:13.911Z,99465.25
2022-10-16T05:15:41.707Z,99487.44
2022-10-16T05:18:10.284Z,99511.16
2022-10-16T05:20:37.980Z,99519.19
2022-10-16T05:23:05.565Z,99524.56
2022-10-16T05:25:33.339Z,99521.13
2022-10-16T05:28:02.232Z,99513.22
2022-10-16T05:30:29.972Z,99523.78
2022-10-16T05:32:57.606Z,99531.69
2022-10-16T05:35:25.280Z,99537.88
2022-10-16T05:37:52.928Z,99556.41
2022-10-16T05:40:20.545Z,99548.53
2022-10-16T05:42:48.234Z,99535.41
2022-10-16T05:45:17.345Z,99512.03
2022-10-16T05:47:44.914Z,99528.34
2022-10-16T05:50:12.662Z,99531.72
2022-10-16T05:52:40.244Z,99517.44
2022-10-16T05:55:08.722Z,99541.41
2022-10-16T05:57:36.304Z,99554.56
2022-10-16T06:00:04.277Z,99566.78
2022-10-16T06:02:33.466Z,99564.06
2022-10-16T06:05:01.145Z,99561.41
2022-10-16T06:07:29.197Z,99565.63
2022-10-16T06:09:57.084Z,99564.66
2022-10-16T06:12:24.709Z,99565.41
2022-10-16T06:14:52.461Z,99567.22
2022-10-16T06:17:20.021Z,99586.44
2022-10-16T06:19:49.078Z,99584.47
2022-10-16T06:22:17.048Z,99596.72
2022-10-16T06:24:44.798Z,99595.72
2022-10-16T06:27:12.460Z,99601.50
2022-10-16T06:29:40.178Z,99591.59
2022-10-16T06:32:07.807Z,99594.84
2022-10-16T06:34:35.450Z,99595.47
2022-10-16T06:37:04.481Z,99604.88
2022-10-16T06:39:32.059Z,99610.91
2022-10-16T06:44:28.296Z,99605.56
2022-10-16T06:46:55.960Z,99599.75
2022-10-16T06:49:23.936Z,99610.16
2022-10-16T06:51:51.625Z,99619.13
2022-10-16T06:54:20.524Z,99628.84
2022-10-16T06:56:48.260Z,99633.66
2022-10-16T06:59:16.204Z,99631.97
2022-10-16T07:01:45.898Z,99640.91
2022-10-16T07:04:13.556Z,99647.22
2022-10-16T07:06:41.420Z,99647.34
2022-10-16T07:09:10.413Z,99660.56
2022-10-16T07:11:39.796Z,99665.13
2022-10-16T07:14:07.448Z,99671.22
2022-10-16T07:16:35.124Z,99670.28
2022-10-16T07:19:03.708Z,99671.81
2022-10-16T07:21:32.382Z,99677.25
2022-10-16T07:24:01.971Z,99686.19
2022-10-16T07:26:31.140Z,99682.19
2022-10-16T07:29:00.332Z,99680.88
2022-10-16T07:31:28.114Z,99697.13
2022-10-16T07:33:55.947Z,99690.44
2022-10-16T07:36:23.797Z,99680.84
2022-10-16T07:38:54.048Z,99671.44
2022-10-16T07:41:25.067Z,99679.44
2022-10-16T07:43:53.637Z,99614.38
2022-10-16T07:46:23.724Z,99664.88
2022-10-16T07:48:51.332Z,99686.75
2022-10-16T07:51:21.054Z,99709.44
2022-10-16T07:53:48.792Z,99655.34
2022-10-16T07:56:17.681Z,99727.41
2022-10-16T07:58:45.392Z,99734.16
2022-10-16T08:01:14.035Z,99721.03
2022-10-16T08:03:47.188Z,99677.88
2022-10-16T08:06:15.163Z,99704.53
2022-10-16T08:08:44.136Z,99736.91
2022-10-16T08:11:12.401Z,99688.97
2022-10-16T08:13:53.731Z,99794.31
2022-10-16T08:16:24.607Z,99494.56
2022-10-16T08:18:54.576Z,99446.97
2022-10-16T08:21:24.233Z,99730.53
2022-10-16T08:23:57.075Z,99684.78
2022-10-16T08:26:27.693Z,99848.75
2022-10-16T08:28:59.544Z,99545.72
2022-10-16T08:31:35.021Z,99697.34
2022-10-16T08:34:06.348Z,99726.31
2022-10-16T08:36:41.333Z,99803.88
2022-10-16T08:39:28.821Z,99708.22
2022-10-16T08:42:22.151Z,99820.97
2022-10-16T08:45:10.833Z,99640.84
2022-10-16T08:47:48.656Z,99515.41
2022-10-16T08:50:22.488Z,99683.97
2022-10-16T08:52:50.262Z,99805.78
2022-10-16T08:55:23.391Z,99790.53
2022-10-16T08:57:51.422Z,99794.25
2022-10-16T09:00:19.568Z,99801.09
2022-10-16T09:02:50.855Z,99801.63
2022-10-16T09:05:27.834Z,99800.66
2022-10-16T09:10:38.686Z,99778.81
2022-10-16T09:13:13.667Z,99691.25
2022-10-16T09:15:42.372Z,99813.59
2022-10-16T09:18:14.411Z,99810.41
2022-10-16T09:20:49.424Z,99805.81
2022-10-16T09:23:18.836Z,99812.34
2022-10-16T09:25:48.683Z,99737.34
2022-10-16T09:28:24.438Z,99827.97
2022-10-16T09:30:52.216Z,99817.41
2022-10-16T09:33:20.971Z,99810.69
2022-10-16T09:36:04.161Z,99808.91
2022-10-16T09:38:32.570Z,99759.72
2022-10-16T09:41:03.173Z,99844.34
2022-10-16T09:43:36.125Z,99824.59
2022-10-16T09:46:04.766Z,99823.16
2022-10-16T09:48:35.874Z,99830.00
2022-10-16T09:51:06.549Z,99834.00
2022-10-16T09:53:42.061Z,99804.91
2022-10-16T09:56:14.563Z,99795.91
2022-10-16T09:58:46.293Z,99825.69
2022-10-16T10:01:15.472Z,99824.63
2022-10-16T10:03:44.825Z,99700.31
2022-10-16T10:06:22.841Z,99835.63
2022-10-16T10:08:58.162Z,99827.03
2022-10-16T10:11:45.794Z,99809.38
2022-10-16T10:14:25.146Z,99783.19
2022-10-16T10:16:53.173Z,99840.97
2022-10-16T10:19:21.902Z,99785.78
2022-10-16T10:21:51.012Z,99827.09
2022-10-16T10:24:19.495Z,99827.78
2022-10-16T10:26:51.236Z,99770.28
2022-10-16T10:29:25.088Z,99810.66
2022-10-16T10:31:55.782Z,99795.09
2022-10-16T10:34:33.220Z,99683.56
2022-10-16T10:37:05.180Z,99829.81
2022-10-16T10:39:34.724Z,99845.50
2022-10-16T10:42:15.188Z,99635.97
2022-10-16T10:45:21.340Z,99832.66
2022-10-16T10:47:54.299Z,99834.31
2022-10-16T10:50:25.390Z,99879.25
2022-10-16T10:53:00.706Z,99785.81
2022-10-16T10:55:33.695Z,99835.03
2022-10-16T10:58:38.258Z,99802.44
2022-10-16T11:04:08.832Z,99817.72
2022-10-16T11:06:37.808Z,99844.66
2022-10-16T11:09:11.700Z,99815.91
2022-10-16T11:11:42.279Z,99818.28
2022-10-16T11:14:15.671Z,99815.78
2022-10-16T11:16:45.650Z,99844.59
2022-10-16T11:19:16.427Z,99833.13
2022-10-16T11:21:49.515Z,99680.63
2022-10-16T11:24:20.936Z,99768.66
2022-10-16T11:26:48.665Z,99807.50
2022-10-16T11:29:20.621Z,99788.47
2022-10-16T11:31:49.874Z,99813.75
2022-10-16T11:34:21.418Z,99825.28
2022-10-16T11:36:50.727Z,99845.91
2022-10-16T11:39:23.716Z,99824.31
2022-10-16T11:41:52.721Z,99864.69
2022-10-16T11:44:34.539Z,99793.88
2022-10-16T11:47:33.887Z,99834.22
2022-10-16T11:50:00.583Z,99841.75
2022-10-16T11:52:30.682Z,99843.63
2022-10-16T11:55:01.572Z,99723.38
2022-10-16T11:57:31.493Z,99844.63
2022-10-16T12:00:00.602Z,99814.84
2022-10-16T12:02:33.376Z,99797.44
2022-10-16T12:05:07.396Z,99846.13
2022-10-16T12:07:36.860Z,99852.41
2022-10-16T12:10:13.548Z,99784.81
2022-10-16T12:12:42.384Z,99838.81
2022-10-16T12:15:40.491Z,99678.13
2022-10-16T12:18:20.950Z,99851.66
2022-10-16T12:20:59.790Z,99853.88
2022-10-16T12:23:27.463Z,99822.75
2022-10-16T12:25:57.812Z,99843.13
2022-10-16T12:28:28.747Z,99845.56
2022-10-16T12:30:57.775Z,99865.41
2022-10-16T12:33:27.672Z,99856.97
2022-10-16T12:35:55.659Z,99790.16
2022-10-16T12:38:24.416Z,99830.09
2022-10-16T12:41:00.954Z,99874.88
2022-10-16T12:43:36.671Z,99765.78
2022-10-16T12:46:06.420Z,99794.06
2022-10-16T12:48:48.338Z,99778.03
2022-10-16T12:51:25.591Z,99827.84
2022-10-16T12:54:03.214Z,99757.94
2022-10-16T12:59:14.375Z,99838.03
2022-10-16T13:01:45.408Z,99834.88
2022-10-16T13:04:26.187Z,99846.88
2022-10-16T13:06:55.605Z,99845.19
2022-10-16T13:09:42.976Z,99852.00
2022-10-16T13:12:19.216Z,99860.69
2022-10-16T13:15:00.346Z,99801.97
2022-10-16T13:17:30.675Z,99855.94
2022-10-16T13:20:04.560Z,99791.53
2022-10-16T13:22:34.280Z,99806.84
2022-10-16T13:25:13.174Z,99842.97
2022-10-16T13:27:46.085Z,99866.91
2022-10-16T13:30:16.019Z,99749.94
2022-10-16T13:32:46.833Z,99740.44
2022-10-16T13:35:21.663Z,99796.94
2022-10-16T13:37:49.786Z,99867.66
2022-10-16T13:40:21.713Z,99818.56
2022-10-16T13:42:50.737Z,99573.25
2022-10-16T13:45:21.825Z,99856.25
2022-10-16T13:47:49.578Z,99835.75
2022-10-16T13:50:30.811Z,99774.31
2022-10-16T13:53:06.487Z,99816.69
2022-10-16T13:55:34.167Z,99834.00
2022-10-16T13:58:10.627Z,99849.41
2022-10-16T14:03:07.292Z,99751.53
2022-10-16T14:05:43.866Z,99768.44
2022-10-16T14:08:14.757Z,99857.31
2022-10-16T14:10:45.188Z,99848.63
2022-10-16T14:13:22.452Z,99648.25
2022-10-16T14:16:17.728Z,99508.28
2022-10-16T14:18:47.860Z,99857.81
2022-10-16T14:21:16.480Z,99814.97
2022-10-16T14:23:44.239Z,99742.25
2022-10-16T14:26:16.419Z,99877.50
2022-10-16T14:28:45.752Z,99885.00
2022-10-16T14:31:32.012Z,99876.09
2022-10-16T14:33:59.961Z,99646.34
2022-10-16T14:36:29.078Z,99836.63
2022-10-16T14:39:01.396Z,99793.69
2022-10-16T14:41:29.219Z,99874.56
2022-10-16T14:43:58.905Z,99868.13
2022-10-16T14:46:31.912Z,99773.44
2022-10-16T14:49:02.430Z,99633.25
2022-10-16T14:51:30.470Z,99773.63
2022-10-16T14:54:00.626Z,99859.28
2022-10-16T14:56:33.544Z,99773.16
2022-10-16T14:59:03.926Z,99776.38
2022-10-16T15:01:31.608Z,99821.50
2022-10-16T15:03:59.356Z,99846.03
2022-10-16T15:06:27.181Z,99834.22
2022-10-16T15:08:55.129Z,99827.00
2022-10-16T15:11:23.019Z,99921.81
2022-10-16T15:13:50.815Z,99870.91
2022-10-16T15:16:23.626Z,99852.38
2022-10-16T15:18:51.432Z,99799.41
2022-10-16T15:21:27.385Z,99806.69
2022-10-16T15:23:55.268Z,99886.94
2022-10-16T15:26:23.274Z,99884.66
2022-10-16T15:28:53.419Z,99782.50
2022-10-16T15:31:23.470Z,99874.81
2022-10-16T15:33:59.127Z,99872.41
2022-10-16T15:36:28.647Z,99868.28
2022-10-16T15:38:56.666Z,99657.03
2022-10-16T15:41:24.607Z,99932.66
2022-10-16T15:43:53.131Z,99929.72
2022-10-16T15:46:23.813Z,99981.38
2022-10-16T15:48:52.097Z,99857.94
2022-10-16T15:51:20.047Z,99825.97
2022-10-16T15:53:47.911Z,99826.69
2022-10-16T15:56:15.891Z,99763.63
2022-10-16T15:58:44.333Z,99840.94
2022-10-16T16:01:12.745Z,99860.06
2022-10-16T16:03:42.374Z,99589.03
2022-10-16T16:06:14.827Z,99870.66
2022-10-16T16:08:42.507Z,99884.16
2022-10-16T16:11:11.871Z,99851.63
2022-10-16T16:13:39.803Z,99672.03
2022-10-16T16:16:09.414Z,99821.09
2022-10-16T16:18:39.293Z,99851.75
2022-10-16T16:21:08.721Z,99823.78
2022-10-16T16:23:36.419Z,99848.91
2022-10-16T16:26:08.528Z,99843.72
2022-10-16T16:28:36.386Z,99850.09
2022-10-16T16:31:04.281Z,99822.59
2022-10-16T16:33:32.361Z,99843.44
2022-10-16T16:36:00.798Z,99828.31
2022-10-16T16:38:29.965Z,99683.69
2022-10-16T16:40:57.766Z,99702.47
2022-10-16T16:43:27.287Z,99809.97
2022-10-16T16:45:56.411Z,99797.72
2022-10-16T16:48:24.292Z,99588.25
2022-10-16T16:50:52.143Z,99786.06
2022-10-16T16:53:20.282Z,99888.66
2022-10-16T16:55:49.451Z,99735.28
2022-10-16T16:58:17.170Z,99814.28
2022-10-16T17:00:56.524Z,99878.41
2022-10-16T17:03:31.605Z,99861.91
2022-10-16T17:05:59.516Z,99823.91
2022-10-16T17:08:36.363Z,99877.25
2022-10-16T17:14:21.300Z,99444.81
2022-10-16T17:16:57.598Z,99507.38
2022-10-16T17:30:44.841Z,99591.81
2022-10-16T17:36:48.850Z,99632.44
2022-10-16T17:39:21.831Z,99918.59
2022-10-16T17:42:53.231Z,99420.59
2022-10-16T17:45:46.278Z,99759.22
2022-10-16T17:48:18.028Z,99654.63
2022-10-16T17:50:49.086Z,99728.16
2022-10-16T17:53:19.644Z,99933.78
2022-10-16T17:55:47.368Z,99838.31
2022-10-16T18:00:57.321Z,99881.53
2022-10-16T18:03:49.663Z,99899.47
2022-10-16T18:17:39.408Z,99634.44
2022-10-16T18:20:10.572Z,99841.53
2022-10-16T18:22:41.641Z,99762.38
2022-10-16T18:25:15.596Z,99613.69
2022-10-16T18:28:44.183Z,99907.47
2022-10-16T18:32:23.955Z,100010.50
2022-10-16T18:35:00.491Z,99976.53
2022-10-16T18:37:35.454Z,99779.97
2022-10-16T18:41:04.489Z,99504.94
2022-10-16T18:43:39.904Z,99928.28
2022-10-16T18:46:11.751Z,99624.16
2022-10-16T18:49:02.804Z,99914.78
2022-10-16T18:52:00.890Z,99921.09
2022-10-16T18:56:32.321Z,99683.56
2022-10-16T18:58:44.517Z,99563.91
2022-10-16T19:01:23.234Z,100014.75
2022-10-16T19:07:30.334Z,99656.38
2022-10-16T19:10:07.424Z,99999.06
2022-10-16T19:12:38.162Z,99405.31
2022-10-16T19:15:07.812Z,99978.41
2022-10-16T19:17:37.824Z,99953.63
2022-10-16T19:20:06.713Z,99891.00
2022-10-16T19:22:52.356Z,99827.78
2022-10-16T19:25:22.979Z,99835.44
2022-10-16T19:27:50.813Z,99937.69
2022-10-16T19:30:18.929Z,99737.81
2022-10-16T19:32:49.406Z,99958.22
2022-10-16T19:35:17.313Z,99844.16
2022-10-16T19:37:45.075Z,99688.06
2022-10-16T19:40:14.752Z,99556.31
2022-10-16T19:42:45.310Z,99916.50
2022-10-16T19:45:14.099Z,99850.84
2022-10-16T19:47:44.280Z,100057.91
2022-10-16T19:50:12.331Z,99709.09
2022-10-16T19:52:40.896Z,99809.09
2022-10-16T19:55:09.526Z,99733.94
2022-10-16T19:57:37.683Z,99907.44
2022-10-16T20:00:08.203Z,99620.84
2022-10-16T20:02:36.060Z,99803.59
2022-10-16T20:05:04.246Z,99879.06
2022-10-16T20:07:39.059Z,99981.72
2022-10-16T20:10:08.403Z,100007.16
2022-10-16T20:12:36.163Z,99764.75
2022-10-16T20:15:05.013Z,99572.22
2022-10-16T20:17:34.307Z,99664.41
2022-10-16T20:20:02.174Z,99987.31
2022-10-16T20:22:30.045Z,99746.31
2022-10-16T20:24:57.800Z,99936.63
2022-10-16T20:27:29.261Z,100008.22
2022-10-16T20:29:57.191Z,99641.84
2022-10-16T20:32:24.947Z,99834.16
2022-10-16T20:34:54.135Z,100063.59
2022-10-16T20:37:21.933Z,99648.97
2022-10-16T20:39:49.701Z,99677.47
2022-10-16T20:42:17.389Z,99938.56
2022-10-16T20:44:47.947Z,99877.25
2022-10-16T20:47:18.412Z,99982.56
2022-10-16T20:49:46.218Z,99859.84
2022-10-16T20:52:15.372Z,99786.72
2022-10-16T20:54:45.827Z,99927.97
2022-10-16T20:57:13.795Z,99897.50
2022-10-16T20:59:41.823Z,99896.63
2022-10-16T21:02:14.232Z,99876.97
2022-10-16T21:04:42.458Z,99618.97
2022-10-16T21:07:10.716Z,99692.41
2022-10-16T21:09:40.702Z,99965.72
2022-10-16T21:12:08.578Z,99892.88
2022-10-16T21:14:39.432Z,99621.44
2022-10-16T21:17:10.269Z,99796.03
2022-10-16T21:19:38.115Z,100041.78
2022-10-16T21:22:05.895Z,99680.84
2022-10-16T21:24:33.705Z,99817.94
2022-10-16T21:27:02.805Z,99795.41
2022-10-16T21:29:30.689Z,99615.19
2022-10-16T21:31:58.480Z,99735.66
2022-10-16T21:34:26.279Z,99884.53
2022-10-16T21:36:54.087Z,99861.19
2022-10-16T21:39:22.066Z,99782.06
2022-10-16T21:41:50.586Z,99847.75
2022-10-16T21:44:20.474Z,100099.63
2022-10-16T21:46:48.336Z,99865.41
2022-10-16T21:49:17.681Z,99965.81
2022-10-16T21:52:27.205Z,99557.50
2022-10-16T21:55:00.529Z,99812.00
2022-10-16T21:57:30.610Z,99656.91
2022-10-16T22:00:01.350Z,99713.84
2022-10-16T22:02:30.925Z,99775.06
2022-10-16T22:04:58.715Z,99891.28
2022-10-16T22:07:26.781Z,99753.81
2022-10-16T22:09:54.747Z,99936.16
2022-10-16T22:12:22.528Z,99829.56
2022-10-16T22:14:50.321Z,100096.69
2022-10-16T22:17:19.507Z,99830.56
2022-10-16T22:19:47.258Z,99665.00
2022-10-16T22:22:15.113Z,100033.13
2022-10-16T22:24:42.878Z,99600.63
2022-10-16T22:27:10.628Z,99775.25
2022-10-16T22:29:38.394Z,99832.09
2022-10-16T22:32:06.173Z,99658.03
2022-10-16T22:34:35.306Z,99805.09
2022-10-16T22:37:03.194Z,99765.41
2022-10-16T22:39:30.868Z,99947.88
2022-10-16T22:41:58.591Z,99883.84
2022-10-16T22:44:26.344Z,99763.75
2022-10-16T22:46:54.097Z,99879.38
2022-10-16T22:49:21.901Z,99957.09
2022-10-16T22:54:18.927Z,99915.84
2022-10-16T22:56:46.616Z,99680.09
2022-10-16T22:59:14.312Z,99977.78
2022-10-16T23:01:42.324Z,99980.28
2022-10-16T23:04:10.022Z,99584.16
2022-10-16T23:06:37.774Z,99784.00
2022-10-16T23:09:06.916Z,99764.31
2022-10-16T23:16:50.330Z,99908.47
2022-10-16T23:19:17.986Z,99949.00
2022-10-16T23:21:45.949Z,99960.31
2022-10-16T23:24:14.831Z,99976.84
2022-10-16T23:26:42.473Z,99976.75
2022-10-16T23:29:10.381Z,99982.00
2022-10-16T23:31:38.122Z,99974.09
2022-10-16T23:34:05.746Z,99976.84
2022-10-16T23:36:33.456Z,99979.22
2022-10-16T23:39:01.053Z,99988.00
2022-10-16T23:41:30.142Z,99991.63
2022-10-16T23:43:57.709Z,99992.44
2022-10-16T23:48:57.866Z,99987.19
2022-10-16T23:51:25.749Z,99990.66
2022-10-16T23:53:53.558Z,99984.97
2022-10-16T23:56:21.289Z,99988.84
2022-10-16T23:58:50.221Z,99984.47
